Time;durP1;ratioP1;P1;durP2;ratioP2;P2;SDS_P1;SDS_P2;PMS_P1;PMS_P2;Temp;Humidity;BMP_temperature;BMP_pressure;BME280_temperature;BME280_humidity;BME280_pressure;Samples;Min_cycle;Max_cycle;Signal;HPM_P1;HPM_P2
2023/05/15 00:01:29;;;;;;;3.88;2.45;;;22.00;70.20;;;;;;5100958;28;20048;-75
2023/05/15 00:03:56;;;;;;;3.63;2.42;;;22.00;70.20;;;;;;5083258;28;20044;-76
2023/05/15 00:06:23;;;;;;;3.92;2.55;;;22.00;70.10;;;;;;5090031;28;20055;-76
2023/05/15 00:08:50;;;;;;;4.20;3.38;;;22.00;70.20;;;;;;5090242;28;20048;-76
2023/05/15 00:11:17;;;;;;;3.88;2.58;;;22.00;70.20;;;;;;5089964;28;20059;-76
2023/05/15 00:13:44;;;;;;;4.32;2.47;;;22.00;70.20;;;;;;5093223;28;20048;-76
2023/05/15 00:16:13;;;;;;;4.13;2.10;;;22.00;70.20;;;;;;5097418;28;20050;-75
2023/05/15 00:18:40;;;;;;;3.22;2.28;;;22.00;70.20;;;;;;5091282;28;20063;-76
2023/05/15 00:21:07;;;;;;;4.32;3.38;;;22.00;70.20;;;;;;5085011;28;20052;-75
2023/05/15 00:23:34;;;;;;;2.75;2.28;;;22.00;70.20;;;;;;5086013;28;20558;-76
2023/05/15 00:26:01;;;;;;;3.50;2.60;;;22.00;70.20;;;;;;5091937;28;20055;-75
2023/05/15 00:28:28;;;;;;;3.72;3.38;;;22.00;70.20;;;;;;5091134;28;20048;-75
2023/05/15 00:30:54;;;;;;;4.55;3.22;;;22.00;70.20;;;;;;5086393;28;20055;-76
2023/05/15 00:33:23;;;;;;;3.63;2.97;;;22.00;70.20;;;;;;5102711;28;20054;-76
2023/05/15 00:35:50;;;;;;;3.63;3.30;;;21.90;70.20;;;;;;5100803;28;20050;-75
2023/05/15 00:38:17;;;;;;;3.92;3.33;;;21.90;70.20;;;;;;5092627;28;20048;-76
2023/05/15 00:40:45;;;;;;;3.38;1.95;;;22.00;70.20;;;;;;5084512;28;20064;-75
2023/05/15 00:43:13;;;;;;;4.43;2.40;;;22.00;70.20;;;;;;5090691;28;20044;-76
2023/05/15 00:45:41;;;;;;;3.95;2.80;;;22.00;70.20;;;;;;5095567;28;20043;-76
2023/05/15 00:48:09;;;;;;;3.47;3.17;;;21.90;70.20;;;;;;5090479;28;20044;-75
2023/05/15 00:50:40;;;;;;;4.05;3.15;;;21.90;70.20;;;;;;5086633;28;20048;-76
2023/05/15 00:53:07;;;;;;;4.68;3.35;;;21.90;70.20;;;;;;5090644;28;20047;-75
2023/05/15 00:55:36;;;;;;;3.55;2.08;;;21.90;70.20;;;;;;5087527;28;20056;-76
2023/05/15 00:58:03;;;;;;;4.10;2.17;;;21.90;70.20;;;;;;5091302;28;20056;-76
2023/05/15 01:00:32;;;;;;;3.40;3.10;;;21.90;70.20;;;;;;5086135;28;20058;-76
2023/05/15 01:03:00;;;;;;;4.18;2.58;;;21.90;70.20;;;;;;5098148;28;20097;-76
2023/05/15 01:05:27;;;;;;;5.22;4.05;;;21.90;70.20;;;;;;5087989;28;20066;-76
2023/05/15 01:08:16;;;;;;;4.15;3.30;;;21.90;70.20;;;;;;5091676;28;20085;-76
2023/05/15 01:10:44;;;;;;;3.45;2.20;;;21.90;70.20;;;;;;5094650;28;21301;-76
2023/05/15 01:13:12;;;;;;;3.72;2.25;;;21.90;70.30;;;;;;5090371;28;20059;-76
2023/05/15 01:15:39;;;;;;;3.95;3.38;;;21.90;70.20;;;;;;5098778;28;20669;-75
2023/05/15 01:18:07;;;;;;;2.92;2.17;;;21.90;70.20;;;;;;5097006;28;20047;-76
2023/05/15 01:20:41;;;;;;;3.60;2.25;;;21.90;70.30;;;;;;5091115;28;20043;-76
2023/05/15 01:23:16;;;;;;;3.25;2.22;;;21.90;70.30;;;;;;5087777;28;20062;-75
2023/05/15 01:26:34;;;;;;;3.38;2.50;;;21.90;70.30;;;;;;5094306;28;20079;-76
2023/05/15 01:29:08;;;;;;;3.28;2.42;;;21.90;70.20;;;;;;5081794;28;20128;-76
2023/05/15 01:31:37;;;;;;;3.05;2.20;;;21.90;70.20;;;;;;5101863;28;20052;-76
2023/05/15 01:34:09;;;;;;;4.35;2.65;;;21.90;70.30;;;;;;5093630;28;20056;-75
2023/05/15 01:36:39;;;;;;;3.33;2.33;;;21.90;70.30;;;;;;5090804;28;20055;-76
2023/05/15 01:39:07;;;;;;;4.68;3.53;;;21.90;70.30;;;;;;5088740;28;20058;-76
2023/05/15 01:41:41;;;;;;;3.65;2.17;;;21.90;70.30;;;;;;5089971;28;20063;-76
2023/05/15 01:44:18;;;;;;;3.30;2.38;;;21.80;70.30;;;;;;5086501;28;20048;-76
2023/05/15 01:46:49;;;;;;;3.65;2.40;;;21.90;70.40;;;;;;5101509;28;20640;-75
2023/05/15 01:49:19;;;;;;;3.67;3.28;;;21.80;70.30;;;;;;5082218;28;20055;-76
2023/05/15 01:51:52;;;;;;;3.88;3.08;;;21.80;70.30;;;;;;5088511;28;20048;-76
2023/05/15 01:54:20;;;;;;;2.95;2.35;;;21.80;70.30;;;;;;5092017;28;20055;-76
2023/05/15 01:56:48;;;;;;;3.38;3.08;;;21.80;70.30;;;;;;5091083;28;20063;-76
2023/05/15 01:59:17;;;;;;;3.97;3.42;;;21.80;70.30;;;;;;5084592;28;20421;-76
2023/05/15 02:01:45;;;;;;;3.75;3.40;;;21.80;70.30;;;;;;5087334;28;20040;-76
2023/05/15 02:04:14;;;;;;;3.55;3.25;;;21.80;70.30;;;;;;5091562;28;20484;-75
2023/05/15 02:06:41;;;;;;;4.13;3.33;;;21.80;70.30;;;;;;5091124;28;20497;-76
2023/05/15 02:09:09;;;;;;;3.20;2.70;;;21.80;70.30;;;;;;5087207;28;20047;-76
2023/05/15 02:11:37;;;;;;;3.88;3.47;;;21.80;70.30;;;;;;5091298;28;20059;-76
2023/05/15 02:14:05;;;;;;;3.65;2.35;;;21.80;70.30;;;;;;5106045;28;20048;-76
2023/05/15 02:16:33;;;;;;;3.38;2.55;;;21.80;70.90;;;;;;5091902;28;20698;-76
2023/05/15 02:19:00;;;;;;;3.63;2.22;;;21.80;70.30;;;;;;5093483;28;20036;-76
2023/05/15 02:21:27;;;;;;;3.85;2.58;;;21.80;70.30;;;;;;5088992;28;20055;-75
2023/05/15 02:23:54;;;;;;;3.72;2.22;;;21.80;70.30;;;;;;5091306;28;20044;-76
2023/05/15 02:26:30;;;;;;;3.92;2.42;;;21.70;70.20;;;;;;5095361;28;20051;-76
2023/05/15 02:29:10;;;;;;;3.63;3.17;;;21.80;70.30;;;;;;5095765;28;20044;-76
2023/05/15 02:31:47;;;;;;;4.68;2.78;;;21.70;70.20;;;;;;5089970;28;20089;-76
2023/05/15 02:34:22;;;;;;;4.35;3.13;;;21.80;70.30;;;;;;5088059;28;20420;-76
2023/05/15 02:36:51;;;;;;;3.45;2.30;;;21.70;70.20;;;;;;5084055;28;20071;-76
2023/05/15 02:39:22;;;;;;;4.28;3.38;;;21.70;70.20;;;;;;5088280;28;20052;-76
2023/05/15 02:41:51;;;;;;;3.80;2.42;;;21.70;70.20;;;;;;5085585;28;20052;-76
2023/05/15 02:44:19;;;;;;;3.33;2.30;;;21.70;70.20;;;;;;5085502;28;20084;-76
2023/05/15 02:46:48;;;;;;;3.83;2.90;;;21.70;70.20;;;;;;5087438;28;20048;-76
2023/05/15 02:49:15;;;;;;;3.40;2.22;;;21.70;70.30;;;;;;5086032;28;20499;-76
2023/05/15 02:51:42;;;;;;;3.35;2.47;;;21.70;70.20;;;;;;5089956;28;20625;-76
2023/05/15 02:54:10;;;;;;;4.25;3.55;;;21.70;70.20;;;;;;5088820;28;20052;-75
2023/05/15 02:56:37;;;;;;;3.53;2.78;;;21.70;70.20;;;;;;5088138;28;20066;-76
2023/05/15 02:59:04;;;;;;;4.13;2.80;;;21.70;70.20;;;;;;5089749;28;20044;-76
2023/05/15 03:01:31;;;;;;;3.88;3.28;;;21.70;70.20;;;;;;5087596;28;20052;-76
2023/05/15 03:03:59;;;;;;;4.13;3.70;;;21.70;70.20;;;;;;5085206;28;20048;-76
2023/05/15 03:06:26;;;;;;;3.67;2.60;;;21.70;70.30;;;;;;5083822;28;20048;-76
2023/05/15 03:08:53;;;;;;;3.85;2.55;;;21.70;70.20;;;;;;5089827;28;20044;-76
2023/05/15 03:11:20;;;;;;;3.65;2.78;;;21.70;70.20;;;;;;5089249;28;20710;-76
2023/05/15 03:13:47;;;;;;;3.15;2.03;;;21.70;70.20;;;;;;5089145;28;20515;-76
2023/05/15 03:16:14;;;;;;;3.45;2.42;;;21.60;70.20;;;;;;5087638;28;20051;-76
2023/05/15 03:18:41;;;;;;;4.25;3.30;;;21.70;70.30;;;;;;5088508;28;20229;-76
2023/05/15 03:21:09;;;;;;;3.92;3.53;;;21.70;70.20;;;;;;5085105;28;20051;-76
2023/05/15 03:23:36;;;;;;;4.38;2.50;;;21.70;70.20;;;;;;5087552;28;20067;-76
2023/05/15 03:26:03;;;;;;;3.33;2.33;;;21.60;70.20;;;;;;5086276;28;20059;-76
2023/05/15 03:28:30;;;;;;;4.13;3.10;;;21.60;70.20;;;;;;5087773;28;20059;-76
2023/05/15 03:30:57;;;;;;;3.38;2.60;;;21.70;70.20;;;;;;5087288;28;20063;-76
2023/05/15 03:33:24;;;;;;;4.25;3.85;;;21.70;70.20;;;;;;5084611;28;20051;-76
2023/05/15 03:35:51;;;;;;;3.60;3.30;;;21.70;70.20;;;;;;5087032;28;20047;-76
2023/05/15 03:38:20;;;;;;;3.60;3.03;;;21.70;70.20;;;;;;5085379;28;20415;-76
2023/05/15 03:40:47;;;;;;;3.92;2.83;;;21.60;70.20;;;;;;5098409;28;20063;-76
2023/05/15 03:43:14;;;;;;;3.72;3.30;;;21.70;70.30;;;;;;5094658;28;20047;-76
2023/05/15 03:45:41;;;;;;;4.13;3.72;;;21.60;70.20;;;;;;5086251;28;20044;-76
2023/05/15 03:48:08;;;;;;;5.53;4.10;;;21.60;70.20;;;;;;5086269;28;20052;-76
2023/05/15 03:50:35;;;;;;;5.20;4.70;;;21.60;70.20;;;;;;5088482;28;20125;-76
2023/05/15 03:53:01;;;;;;;3.85;2.88;;;21.60;70.20;;;;;;5089208;28;20040;-76
2023/05/15 03:55:30;;;;;;;5.07;3.88;;;21.60;70.20;;;;;;5084921;28;20051;-75
2023/05/15 03:57:57;;;;;;;3.50;2.75;;;21.60;70.20;;;;;;5087317;28;20056;-76
2023/05/15 04:00:24;;;;;;;4.97;3.90;;;21.60;70.20;;;;;;5085093;28;20055;-76
2023/05/15 04:02:51;;;;;;;4.40;3.63;;;21.60;70.20;;;;;;5088450;28;20048;-76
2023/05/15 04:05:20;;;;;;;5.00;3.92;;;21.60;70.20;;;;;;5088833;28;20044;-77
2023/05/15 04:07:47;;;;;;;4.22;3.40;;;21.60;70.20;;;;;;5088083;28;20507;-76
2023/05/15 04:10:14;;;;;;;5.07;3.85;;;21.60;70.20;;;;;;5075692;28;20063;-76
2023/05/15 04:12:42;;;;;;;4.10;3.40;;;21.60;70.20;;;;;;5085465;28;20051;-76
2023/05/15 04:15:17;;;;;;;3.65;2.85;;;21.60;70.10;;;;;;5072626;28;20059;-76
2023/05/15 04:17:45;;;;;;;4.38;3.75;;;21.60;70.20;;;;;;5088380;28;20055;-76
2023/05/15 04:20:14;;;;;;;4.65;3.83;;;21.60;70.20;;;;;;5088108;28;20408;-77
2023/05/15 04:22:41;;;;;;;4.22;3.53;;;21.60;70.20;;;;;;5087785;28;20435;-76
2023/05/15 04:25:10;;;;;;;4.38;3.85;;;21.60;70.20;;;;;;5087557;28;20036;-76
2023/05/15 04:27:37;;;;;;;4.30;3.60;;;21.60;70.20;;;;;;5088635;28;20048;-76
2023/05/15 04:30:07;;;;;;;5.05;4.07;;;21.60;70.20;;;;;;5088039;28;20048;-76
2023/05/15 04:32:36;;;;;;;3.47;3.10;;;21.50;70.10;;;;;;5086016;28;20100;-76
2023/05/15 04:35:05;;;;;;;4.55;3.65;;;21.60;70.20;;;;;;5087558;28;20056;-76
2023/05/15 04:37:32;;;;;;;4.20;3.35;;;21.60;70.20;;;;;;5088786;28;20650;-76
2023/05/15 04:39:59;;;;;;;4.40;3.95;;;21.50;70.10;;;;;;5089700;28;20048;-76
2023/05/15 04:42:26;;;;;;;5.22;4.68;;;21.60;70.20;;;;;;5092203;28;20048;-76
2023/05/15 04:44:53;;;;;;;5.32;3.83;;;21.50;70.20;;;;;;5090929;28;20055;-76
2023/05/15 04:47:22;;;;;;;4.32;3.75;;;21.60;70.10;;;;;;5090148;28;20051;-76
2023/05/15 04:49:49;;;;;;;4.55;3.53;;;21.50;70.10;;;;;;5089597;28;20048;-77
2023/05/15 04:52:16;;;;;;;4.53;3.60;;;21.60;70.20;;;;;;5092054;28;20044;-76
2023/05/15 04:54:43;;;;;;;4.15;3.63;;;21.50;70.10;;;;;;5091363;28;20048;-75
2023/05/15 04:57:10;;;;;;;4.88;3.47;;;21.50;70.20;;;;;;5091509;28;20048;-76
2023/05/15 04:59:37;;;;;;;4.50;3.88;;;21.50;70.10;;;;;;5089704;28;20388;-77
2023/05/15 05:02:04;;;;;;;4.55;3.78;;;21.50;70.10;;;;;;5090631;28;20130;-76
2023/05/15 05:04:33;;;;;;;4.38;3.72;;;21.50;70.10;;;;;;5089726;28;20385;-76
2023/05/15 05:06:59;;;;;;;4.10;3.70;;;21.50;70.10;;;;;;5091231;28;20427;-77
2023/05/15 05:09:26;;;;;;;4.70;4.05;;;21.50;70.10;;;;;;5090373;28;20055;-76
2023/05/15 05:11:53;;;;;;;3.90;3.50;;;21.50;70.10;;;;;;5086389;28;20052;-77
2023/05/15 05:14:20;;;;;;;4.30;3.83;;;21.50;70.10;;;;;;5091301;28;20048;-76
2023/05/15 05:16:47;;;;;;;3.97;3.58;;;21.50;70.10;;;;;;5085872;28;20043;-76
2023/05/15 05:19:14;;;;;;;4.00;2.50;;;21.50;70.10;;;;;;5091026;28;20048;-76
2023/05/15 05:21:42;;;;;;;4.18;3.75;;;21.50;70.10;;;;;;5084572;28;20062;-76
2023/05/15 05:24:10;;;;;;;4.32;3.38;;;21.50;70.10;;;;;;5090798;28;20055;-76
2023/05/15 05:26:37;;;;;;;3.97;3.40;;;21.50;70.10;;;;;;5089597;28;20055;-76
2023/05/15 05:29:04;;;;;;;5.45;3.85;;;21.50;70.10;;;;;;5091510;28;20055;-76
2023/05/15 05:31:31;;;;;;;4.32;3.90;;;21.50;70.00;;;;;;5088072;28;20059;-76
2023/05/15 05:33:58;;;;;;;4.13;3.72;;;21.50;70.10;;;;;;5087370;28;20420;-76
2023/05/15 05:36:25;;;;;;;4.40;3.65;;;21.50;70.10;;;;;;5089252;28;20514;-76
2023/05/15 05:38:53;;;;;;;4.55;3.50;;;21.50;70.10;;;;;;5089562;28;20055;-76
2023/05/15 05:41:20;;;;;;;4.07;3.30;;;21.50;70.10;;;;;;5090778;28;20058;-76
2023/05/15 05:43:47;;;;;;;3.90;3.40;;;21.50;70.10;;;;;;5088407;28;20063;-76
2023/05/15 05:46:14;;;;;;;4.60;3.10;;;21.50;70.10;;;;;;5091174;28;20044;-76
2023/05/15 05:48:41;;;;;;;4.40;3.90;;;21.50;70.10;;;;;;5088743;28;20523;-76
2023/05/15 05:51:08;;;;;;;5.00;3.63;;;21.50;70.00;;;;;;5089137;28;20053;-77
2023/05/15 05:53:35;;;;;;;5.22;3.97;;;21.40;70.00;;;;;;5090007;28;20527;-76
2023/05/15 05:56:03;;;;;;;3.97;3.45;;;21.40;70.10;;;;;;5089781;28;20078;-76
2023/05/15 05:58:30;;;;;;;4.63;4.13;;;21.40;70.20;;;;;;5088646;28;20048;-75
2023/05/15 06:00:57;;;;;;;4.03;3.63;;;21.50;70.20;;;;;;5089383;28;20043;-77
2023/05/15 06:03:24;;;;;;;4.95;4.25;;;21.50;70.20;;;;;;5086827;28;20049;-77
2023/05/15 06:05:51;;;;;;;4.97;3.45;;;21.50;70.20;;;;;;5085367;28;20048;-78
2023/05/15 06:08:18;;;;;;;4.68;4.07;;;21.50;70.20;;;;;;5091505;28;20052;-79
2023/05/15 06:10:45;;;;;;;5.57;3.40;;;21.50;70.20;;;;;;5086676;28;20040;-77
2023/05/15 06:13:14;;;;;;;4.28;3.60;;;21.50;70.40;;;;;;5084045;28;20063;-77
2023/05/15 06:15:41;;;;;;;5.63;3.10;;;21.50;70.60;;;;;;5077072;28;20058;-83
2023/05/15 06:18:08;;;;;;;5.47;4.07;;;21.50;70.60;;;;;;5087661;28;20058;-78
2023/05/15 06:20:35;;;;;;;6.95;4.03;;;21.50;70.60;;;;;;5089904;28;20062;-78
2023/05/15 06:23:02;;;;;;;5.07;2.85;;;21.50;70.60;;;;;;5090184;28;20056;-74
2023/05/15 06:25:29;;;;;;;6.03;3.13;;;21.50;70.70;;;;;;5086497;28;20054;-78
2023/05/15 06:27:56;;;;;;;6.28;4.25;;;21.50;70.70;;;;;;5084509;28;20044;-78
2023/05/15 06:30:25;;;;;;;5.50;3.85;;;21.50;70.70;;;;;;5083365;28;20063;-78
2023/05/15 06:32:52;;;;;;;5.50;4.10;;;21.50;70.80;;;;;;5086834;28;20476;-78
2023/05/15 06:35:19;;;;;;;4.25;3.47;;;21.50;70.80;;;;;;5091741;28;20063;-78
2023/05/15 06:37:49;;;;;;;4.55;2.92;;;21.50;70.80;;;;;;5089455;28;20052;-78
2023/05/15 06:40:16;;;;;;;5.20;3.97;;;21.50;70.80;;;;;;5091116;28;20072;-78
2023/05/15 06:42:43;;;;;;;6.97;3.97;;;21.50;70.80;;;;;;5089009;28;20511;-78
2023/05/15 06:45:10;;;;;;;5.18;4.13;;;21.50;70.80;;;;;;5089792;28;20527;-78
2023/05/15 06:47:39;;;;;;;6.18;4.25;;;21.50;70.90;;;;;;5090863;28;20583;-78
2023/05/15 06:50:07;;;;;;;4.05;3.20;;;21.50;70.90;;;;;;5089949;28;20128;-78
2023/05/15 06:52:33;;;;;;;3.97;2.63;;;21.50;70.80;;;;;;5090560;28;20058;-77
2023/05/15 06:55:00;;;;;;;4.15;2.85;;;21.50;70.90;;;;;;5090093;28;20055;-77
2023/05/15 06:57:27;;;;;;;4.25;3.65;;;21.50;70.90;;;;;;5090170;28;20043;-78
2023/05/15 06:59:54;;;;;;;4.43;2.70;;;21.50;70.90;;;;;;5090054;28;20044;-78
2023/05/15 07:02:21;;;;;;;4.70;3.95;;;21.50;70.90;;;;;;5088135;28;20054;-77
2023/05/15 07:04:50;;;;;;;5.57;2.92;;;21.50;70.80;;;;;;5083073;28;20052;-78
2023/05/15 07:07:17;;;;;;;4.07;3.58;;;21.50;70.80;;;;;;5087374;28;20050;-78
2023/05/15 07:09:47;;;;;;;4.22;3.70;;;21.50;70.80;;;;;;5088550;28;20051;-77
2023/05/15 07:12:14;;;;;;;6.05;4.68;;;21.50;70.80;;;;;;5088913;28;20044;-78
2023/05/15 07:14:41;;;;;;;5.40;3.65;;;21.50;70.80;;;;;;5090131;28;20048;-78
2023/05/15 07:17:08;;;;;;;5.57;4.43;;;21.50;70.70;;;;;;5089468;28;20044;-77
2023/05/15 07:19:35;;;;;;;3.88;2.60;;;21.50;70.80;;;;;;5088931;28;20080;-78
2023/05/15 07:22:03;;;;;;;5.05;3.95;;;21.50;70.70;;;;;;5088358;28;20412;-78
2023/05/15 07:24:30;;;;;;;4.75;4.18;;;21.50;70.70;;;;;;5089984;28;20056;-78
2023/05/15 07:26:59;;;;;;;4.53;3.35;;;21.50;70.70;;;;;;5090532;28;20048;-79
2023/05/15 07:29:26;;;;;;;4.22;2.97;;;21.50;70.60;;;;;;5077282;28;20062;-78
2023/05/15 07:31:53;;;;;;;4.32;3.92;;;21.60;70.70;;;;;;5089723;28;20048;-78
2023/05/15 07:34:20;;;;;;;4.35;3.13;;;21.60;70.70;;;;;;5089954;28;20059;-78
2023/05/15 07:36:47;;;;;;;4.60;2.95;;;21.60;70.70;;;;;;5079613;28;20132;-78
2023/05/15 07:39:15;;;;;;;5.03;3.65;;;21.60;70.60;;;;;;5087838;28;20969;-78
2023/05/15 07:41:42;;;;;;;4.28;3.42;;;21.60;70.60;;;;;;5088364;28;20051;-76
2023/05/15 07:44:10;;;;;;;4.50;3.78;;;21.60;70.60;;;;;;5089676;28;20044;-78
2023/05/15 07:46:37;;;;;;;4.18;3.10;;;21.50;70.60;;;;;;5088826;28;20056;-78
2023/05/15 07:49:04;;;;;;;5.68;3.90;;;21.60;70.60;;;;;;5086795;28;20176;-78
2023/05/15 07:51:31;;;;;;;5.90;4.22;;;21.60;70.60;;;;;;5090024;28;20055;-78
2023/05/15 07:53:58;;;;;;;4.55;3.90;;;21.60;70.60;;;;;;5081851;28;20062;-78
2023/05/15 07:56:27;;;;;;;4.90;3.15;;;21.60;70.60;;;;;;5090142;28;20094;-77
2023/05/15 07:58:54;;;;;;;4.63;2.70;;;21.60;70.50;;;;;;5085967;28;20052;-78
2023/05/15 08:01:20;;;;;;;4.32;2.92;;;21.60;70.50;;;;;;5088262;28;20063;-78
2023/05/15 08:03:47;;;;;;;4.78;4.07;;;21.60;70.50;;;;;;5084145;28;20055;-77
2023/05/15 08:06:15;;;;;;;4.05;2.95;;;21.60;70.50;;;;;;5104607;28;20055;-78
2023/05/15 08:08:42;;;;;;;4.72;3.88;;;21.60;70.50;;;;;;5089144;28;20048;-78
2023/05/15 08:11:09;;;;;;;6.18;4.10;;;21.60;70.50;;;;;;5075518;28;20139;-78
2023/05/15 08:13:37;;;;;;;4.25;3.53;;;21.60;70.50;;;;;;5088055;28;20040;-77
2023/05/15 08:16:05;;;;;;;4.82;4.15;;;21.60;70.50;;;;;;5093720;28;20444;-78
2023/05/15 08:18:32;;;;;;;4.40;4.00;;;21.70;70.50;;;;;;5092603;28;20136;-78
2023/05/15 08:20:59;;;;;;;4.45;3.80;;;21.70;70.50;;;;;;5093054;28;20051;-77
2023/05/15 08:23:26;;;;;;;4.03;3.00;;;21.70;70.50;;;;;;5092793;28;20499;-78
2023/05/15 08:25:53;;;;;;;4.10;3.63;;;21.70;70.50;;;;;;5094218;28;20052;-78
2023/05/15 08:28:20;;;;;;;4.28;3.40;;;21.70;70.40;;;;;;5091841;28;20048;-78
2023/05/15 08:30:48;;;;;;;4.15;3.75;;;21.70;70.40;;;;;;5091915;28;20059;-77
2023/05/15 08:33:15;;;;;;;5.28;4.05;;;21.70;70.40;;;;;;5090898;28;20554;-78
2023/05/15 08:35:42;;;;;;;4.15;3.75;;;21.70;70.40;;;;;;5092190;28;20040;-78
2023/05/15 08:38:09;;;;;;;3.72;2.63;;;21.70;70.40;;;;;;5094280;28;20039;-78
2023/05/15 08:40:36;;;;;;;3.67;2.78;;;21.70;70.40;;;;;;5092897;28;20075;-78
2023/05/15 08:43:09;;;;;;;4.90;3.35;;;21.70;70.40;;;;;;5093938;28;20136;-78
2023/05/15 08:45:37;;;;;;;4.82;2.63;;;21.70;70.40;;;;;;5092823;28;20072;-78
2023/05/15 08:48:10;;;;;;;4.50;2.92;;;21.70;70.40;;;;;;5093782;28;20598;-78
2023/05/15 08:50:39;;;;;;;4.70;4.20;;;21.80;70.40;;;;;;5090300;28;20066;-78
2023/05/15 08:53:06;;;;;;;5.57;3.92;;;21.80;70.40;;;;;;5093620;28;20416;-78
2023/05/15 08:55:33;;;;;;;4.70;3.60;;;21.80;70.40;;;;;;5093372;28;20044;-78
2023/05/15 08:58:01;;;;;;;3.97;2.63;;;21.80;70.40;;;;;;5092273;28;20052;-78
2023/05/15 09:00:30;;;;;;;4.45;2.83;;;21.80;70.40;;;;;;5091493;28;20048;-78
2023/05/15 09:02:59;;;;;;;3.90;2.60;;;21.80;70.40;;;;;;5092584;28;20059;-77
2023/05/15 09:05:28;;;;;;;4.05;2.65;;;21.80;70.40;;;;;;5093193;28;20067;-77
2023/05/15 09:07:56;;;;;;;4.47;3.35;;;21.80;70.40;;;;;;5093385;28;20060;-78
2023/05/15 09:10:23;;;;;;;4.60;2.97;;;21.80;70.30;;;;;;5091607;28;20044;-77
2023/05/15 09:12:52;;;;;;;4.63;4.00;;;21.80;70.30;;;;;;5091452;28;20052;-78
2023/05/15 09:15:23;;;;;;;4.07;3.67;;;21.80;70.30;;;;;;5093175;28;20056;-78
2023/05/15 09:17:50;;;;;;;4.70;3.35;;;21.80;70.30;;;;;;5090892;28;20079;-78
2023/05/15 09:20:30;;;;;;;4.82;2.90;;;21.80;70.40;;;;;;5091830;28;20062;-78
2023/05/15 09:22:58;;;;;;;4.93;3.75;;;21.80;70.30;;;;;;5092060;28;20503;-78
2023/05/15 09:25:37;;;;;;;3.65;2.72;;;21.90;70.40;;;;;;5084971;28;20131;-78
2023/05/15 09:28:04;;;;;;;4.00;2.83;;;21.80;70.30;;;;;;5091550;28;20040;-78
2023/05/15 09:30:33;;;;;;;4.18;3.35;;;21.90;70.30;;;;;;5092864;28;20066;-78
2023/05/15 09:33:02;;;;;;;4.22;3.78;;;21.90;70.30;;;;;;5092263;28;20044;-78
2023/05/15 09:35:33;;;;;;;5.60;4.40;;;21.90;70.30;;;;;;5084785;28;20059;-78
2023/05/15 09:38:01;;;;;;;3.92;3.50;;;21.90;70.30;;;;;;5092070;28;20063;-78
2023/05/15 09:40:31;;;;;;;5.38;2.97;;;21.90;70.30;;;;;;5091818;28;20059;-78
2023/05/15 09:42:59;;;;;;;4.68;3.00;;;21.90;70.20;;;;;;5091590;28;20048;-77
2023/05/15 09:45:28;;;;;;;3.95;3.38;;;21.90;70.20;;;;;;5092583;28;20504;-78
2023/05/15 09:47:55;;;;;;;3.72;2.58;;;22.00;70.30;;;;;;5089166;28;20484;-78
2023/05/15 09:50:24;;;;;;;5.07;3.08;;;22.00;70.20;;;;;;5086566;28;20070;-77
2023/05/15 09:52:52;;;;;;;3.92;3.50;;;22.00;70.20;;;;;;5090148;28;20272;-78
2023/05/15 09:55:21;;;;;;;4.15;3.10;;;22.00;70.20;;;;;;5091727;28;20791;-78
2023/05/15 09:58:07;;;;;;;5.07;3.53;;;22.00;70.20;;;;;;5089931;28;20054;-78
2023/05/15 10:00:34;;;;;;;4.55;3.75;;;22.00;70.10;;;;;;5081878;28;20067;-76
2023/05/15 10:03:02;;;;;;;4.18;3.78;;;22.00;70.10;;;;;;5080468;28;20052;-78
2023/05/15 10:05:30;;;;;;;4.25;2.72;;;22.00;70.10;;;;;;5086818;28;20048;-78
2023/05/15 10:07:59;;;;;;;4.15;3.45;;;22.00;70.20;;;;;;5086184;28;20048;-77
2023/05/15 10:10:27;;;;;;;3.83;2.75;;;22.00;70.20;;;;;;5088784;28;20059;-76
2023/05/15 10:12:57;;;;;;;3.95;3.20;;;22.10;70.20;;;;;;5083926;28;20063;-76
2023/05/15 10:15:24;;;;;;;4.30;2.95;;;22.10;70.20;;;;;;5079493;28;20048;-77
2023/05/15 10:17:52;;;;;;;4.22;3.83;;;22.10;70.20;;;;;;5084211;28;20052;-76
2023/05/15 10:20:24;;;;;;;4.28;3.58;;;22.10;70.20;;;;;;5082712;28;20048;-76
2023/05/15 10:22:52;;;;;;;4.35;3.60;;;22.10;70.20;;;;;;5078887;28;20048;-77
2023/05/15 10:25:26;;;;;;;3.80;3.42;;;22.10;70.20;;;;;;5082707;28;20096;-77
2023/05/15 10:27:54;;;;;;;5.03;3.53;;;22.20;70.30;;;;;;5090279;28;20063;-76
2023/05/15 10:30:22;;;;;;;4.05;3.47;;;22.10;70.20;;;;;;5087069;28;20056;-76
2023/05/15 10:32:49;;;;;;;4.80;3.97;;;22.20;70.30;;;;;;5085339;28;20064;-76
2023/05/15 10:35:16;;;;;;;3.67;2.55;;;22.20;70.30;;;;;;5087406;28;20640;-76
2023/05/15 10:37:45;;;;;;;4.65;3.63;;;22.20;70.30;;;;;;5088141;28;20043;-75
2023/05/15 10:40:14;;;;;;;3.70;2.55;;;22.20;70.30;;;;;;5085852;28;20508;-77
2023/05/15 10:42:45;;;;;;;4.55;3.58;;;22.20;70.40;;;;;;5086378;28;20055;-76
2023/05/15 10:45:12;;;;;;;4.43;3.97;;;22.30;70.50;;;;;;5091517;28;20428;-76
2023/05/15 10:47:42;;;;;;;3.65;3.00;;;22.30;70.50;;;;;;5089389;28;20484;-77
2023/05/15 10:50:09;;;;;;;4.05;3.60;;;22.30;70.50;;;;;;5070775;28;20055;-74
2023/05/15 10:52:38;;;;;;;4.28;3.40;;;22.30;70.50;;;;;;5080857;28;20048;-75
2023/05/15 10:55:07;;;;;;;4.00;2.67;;;22.30;70.50;;;;;;5079394;28;20465;-75
2023/05/15 10:57:36;;;;;;;3.92;3.42;;;22.30;70.50;;;;;;5088596;28;20052;-75
2023/05/15 11:00:23;;;;;;;4.18;2.55;;;22.30;70.50;;;;;;5087375;28;20055;-76
2023/05/15 11:02:52;;;;;;;;;;;22.30;70.50;;;;;;5079626;28;20047;-74
2023/05/15 11:05:19;;;;;;;3.65;2.38;;;22.40;70.60;;;;;;5077705;28;19931;-74
2023/05/15 11:08:28;;;;;;;4.95;2.63;;;22.40;70.40;;;;;;5085754;28;20055;-74
2023/05/15 11:10:56;;;;;;;4.13;2.33;;;22.40;70.60;;;;;;5087848;28;21662;-74
2023/05/15 11:13:22;;;;;;;4.28;3.42;;;22.40;70.50;;;;;;5095247;28;20098;-74
2023/05/15 11:15:51;;;;;;;4.95;2.33;;;22.40;70.50;;;;;;5089922;28;20067;-75
2023/05/15 11:18:19;;;;;;;4.28;3.72;;;22.40;70.50;;;;;;5090597;28;20052;-75
2023/05/15 11:21:05;;;;;;;3.50;2.60;;;22.40;70.50;;;;;;5090202;28;20048;-74
2023/05/15 11:23:39;;;;;;;3.65;2.30;;;22.40;70.60;;;;;;5083152;28;20061;-75
2023/05/15 11:26:06;;;;;;;3.70;2.97;;;22.40;70.50;;;;;;5088449;28;20044;-75
2023/05/15 11:28:42;;;;;;;3.45;2.72;;;22.40;70.50;;;;;;5088789;28;20052;-81
2023/05/15 11:31:10;;;;;;;;;;;22.50;70.70;;;;;;5082563;28;20052;-75
2023/05/15 11:33:39;;;;;;;3.03;2.08;;;22.50;70.70;;;;;;5088485;28;21262;-75
2023/05/15 11:36:06;;;;;;;4.60;2.30;;;22.50;70.50;;;;;;5086061;28;20048;-75
2023/05/15 11:38:39;;;;;;;3.75;2.90;;;22.50;70.60;;;;;;5082290;28;20575;-75
2023/05/15 11:41:18;;;;;;;5.40;2.50;;;22.50;70.60;;;;;;5084677;28;20063;-75
2023/05/15 11:43:45;;;;;;;4.00;2.40;;;22.50;70.70;;;;;;5088041;28;20048;-75
2023/05/15 11:46:14;;;;;;;3.50;2.33;;;22.50;70.60;;;;;;5089085;28;20493;-75
2023/05/15 11:48:42;;;;;;;3.90;2.75;;;22.50;70.60;;;;;;5089937;28;20079;-75
2023/05/15 11:51:16;;;;;;;3.30;3.00;;;22.50;70.60;;;;;;5089860;28;20411;-76
2023/05/15 11:53:43;;;;;;;3.85;3.45;;;22.50;70.60;;;;;;5090280;28;20408;-76
2023/05/15 11:56:17;;;;;;;3.42;2.55;;;22.60;70.70;;;;;;5085694;28;20051;-75
2023/05/15 11:58:47;;;;;;;3.30;2.65;;;22.60;70.70;;;;;;5082052;28;20109;-75
2023/05/15 12:01:16;;;;;;;3.55;2.58;;;22.60;70.60;;;;;;5084798;28;20159;-75
2023/05/15 12:03:43;;;;;;;3.60;2.22;;;22.60;70.60;;;;;;5088132;28;20054;-75
2023/05/15 12:06:10;;;;;;;3.95;3.33;;;22.60;70.60;;;;;;5080909;28;20052;-75
2023/05/15 12:08:38;;;;;;;3.05;2.22;;;22.60;70.60;;;;;;5088637;28;20058;-75
2023/05/15 12:11:05;;;;;;;3.70;2.58;;;22.60;70.60;;;;;;5088904;28;20056;-75
2023/05/15 12:13:34;;;;;;;3.72;3.17;;;22.60;70.60;;;;;;5086643;28;20486;-75
2023/05/15 12:16:02;;;;;;;3.30;2.28;;;22.60;70.60;;;;;;5089699;28;20052;-76
2023/05/15 12:18:30;;;;;;;3.70;2.53;;;22.60;70.50;;;;;;5088439;28;20048;-75
2023/05/15 12:20:57;;;;;;;3.15;2.35;;;22.70;70.60;;;;;;5090214;28;20056;-75
2023/05/15 12:23:27;;;;;;;3.13;2.35;;;22.70;70.50;;;;;;5088618;28;20056;-75
2023/05/15 12:25:57;;;;;;;3.70;3.35;;;22.70;70.60;;;;;;5089959;28;20070;-75
2023/05/15 12:28:25;;;;;;;4.20;3.20;;;22.70;70.60;;;;;;5084620;28;20048;-75
2023/05/15 12:30:53;;;;;;;3.47;2.47;;;22.70;70.50;;;;;;5079687;28;20061;-75
2023/05/15 12:33:20;;;;;;;4.40;3.88;;;22.70;70.50;;;;;;5088676;28;20507;-75
2023/05/15 12:35:55;;;;;;;4.05;3.58;;;22.70;70.50;;;;;;5089887;28;20523;-75
2023/05/15 12:38:23;;;;;;;4.65;3.58;;;22.70;70.50;;;;;;5088807;28;20060;-75
2023/05/15 12:40:52;;;;;;;3.50;2.15;;;22.80;70.50;;;;;;5088856;28;20386;-75
2023/05/15 12:43:20;;;;;;;5.50;3.03;;;22.80;70.50;;;;;;5089751;28;20454;-75
2023/05/15 12:45:51;;;;;;;3.58;3.17;;;22.80;70.50;;;;;;5088892;28;20481;-75
2023/05/15 12:48:18;;;;;;;3.40;3.05;;;22.80;70.40;;;;;;5070118;28;20048;-75
2023/05/15 12:50:45;;;;;;;4.50;4.10;;;22.90;70.40;;;;;;5088811;28;20063;-75
2023/05/15 12:53:15;;;;;;;3.80;3.03;;;22.90;70.40;;;;;;5089688;28;20448;-75
2023/05/15 12:55:43;;;;;;;;;;;22.90;70.40;;;;;;5090447;28;20052;-75